createdAt,value
2018-06-07T00:00:01.031Z,88.83
2018-06-07T00:01:01.036Z,89.07
2018-06-07T00:02:01.038Z,89.60
2018-06-07T00:03:01.040Z,89.40
2018-06-07T00:04:01.045Z,89.22
2018-06-07T00:05:01.047Z,88.88
2018-06-07T00:06:01.051Z,89.31
2018-06-07T00:07:01.053Z,88.35
2018-06-07T00:08:01.055Z,88.25
2018-06-07T00:09:01.068Z,87.82
2018-06-07T00:10:01.061Z,88.64
2018-06-07T00:11:01.065Z,88.35
2018-06-07T00:12:01.066Z,89.31
2018-06-07T00:13:01.071Z,88.64
2018-06-07T00:14:01.074Z,88.25
2018-06-07T00:15:01.077Z,88.25
2018-06-07T00:16:01.080Z,88.49
2018-06-07T00:17:01.083Z,88.35
2018-06-07T00:18:01.085Z,88.88
2018-06-07T00:19:01.089Z,87.96
2018-06-07T00:20:01.091Z,88.16
2018-06-07T00:21:01.093Z,88.06
2018-06-07T00:22:01.098Z,87.58
2018-06-07T00:23:01.099Z,87.58
2018-06-07T00:24:01.103Z,88.25
2018-06-07T00:25:01.106Z,87.54
2018-06-07T00:26:01.109Z,87.44
2018-06-07T00:27:01.112Z,87.73
2018-06-07T00:28:01.114Z,88.35
2018-06-07T00:29:01.118Z,88.02
2018-06-07T00:30:01.121Z,88.02
2018-06-07T00:31:01.124Z,88.49
2018-06-07T00:32:01.127Z,89.46
2018-06-07T00:33:01.129Z,89.75
2018-06-07T00:34:01.132Z,89.84
2018-06-07T00:35:01.135Z,89.84
2018-06-07T00:36:01.138Z,89.65
2018-06-07T00:37:01.140Z,89.79
2018-06-07T00:38:01.142Z,89.26
2018-06-07T00:39:01.148Z,89.40
2018-06-07T00:40:01.148Z,89.07
2018-06-07T00:41:01.153Z,89.36
2018-06-07T00:42:01.155Z,89.46
2018-06-07T00:43:01.157Z,89.46
2018-06-07T00:44:01.161Z,90.13
2018-06-07T00:45:01.163Z,89.84
2018-06-07T00:46:01.166Z,89.94
2018-06-07T00:47:01.168Z,89.75
2018-06-07T00:48:01.171Z,89.36
2018-06-07T00:49:01.175Z,88.83
2018-06-07T00:50:01.177Z,88.79
2018-06-07T00:51:01.179Z,88.59
2018-06-07T00:52:01.182Z,88.88
2018-06-07T00:53:01.186Z,89.07
2018-06-07T00:54:01.190Z,88.88
2018-06-07T00:55:01.192Z,89.07
2018-06-07T00:56:01.195Z,88.79
2018-06-07T00:57:01.198Z,88.98
2018-06-07T00:58:01.203Z,88.79
2018-06-07T00:59:01.203Z,89.36
2018-06-07T01:00:01.205Z,89.07
2018-06-07T01:01:01.210Z,89.17
2018-06-07T01:02:01.212Z,89.65
2018-06-07T01:03:01.218Z,89.46
2018-06-07T01:04:01.217Z,90.03
2018-06-07T01:05:01.220Z,90.22
2018-06-07T01:06:01.224Z,89.65
2018-06-07T01:07:01.225Z,90.22
2018-06-07T01:08:01.228Z,89.99
2018-06-07T01:09:01.231Z,90.13
2018-06-07T01:10:01.235Z,90.18
2018-06-07T01:11:01.238Z,89.55
2018-06-07T01:12:01.240Z,90.03
2018-06-07T01:13:01.244Z,90.03
2018-06-07T01:14:01.246Z,89.46
2018-06-07T01:15:01.249Z,90.03
2018-06-07T01:16:01.251Z,89.84
2018-06-07T01:17:01.253Z,89.84
2018-06-07T01:18:01.257Z,89.94
2018-06-07T01:19:01.259Z,90.03
2018-06-07T01:20:01.262Z,90.03
2018-06-07T01:21:01.267Z,89.03
2018-06-07T01:22:01.271Z,89.12
2018-06-07T01:23:01.273Z,89.46
2018-06-07T01:24:01.272Z,89.46
2018-06-07T01:25:01.276Z,89.03
2018-06-07T01:26:01.279Z,89.65
2018-06-07T01:27:01.280Z,90.42
2018-06-07T01:28:01.285Z,89.99
2018-06-07T01:29:01.286Z,89.79
2018-06-07T01:30:01.291Z,89.94
2018-06-07T01:31:01.292Z,89.26
2018-06-07T01:32:01.296Z,89.46
2018-06-07T01:33:01.299Z,89.55
2018-06-07T01:34:01.301Z,88.98
2018-06-07T01:35:01.302Z,88.69
2018-06-07T01:36:01.306Z,88.88
2018-06-07T01:37:01.308Z,88.98
2018-06-07T01:38:01.317Z,89.46
2018-06-07T01:39:01.315Z,89.26
2018-06-07T01:40:01.318Z,89.03
2018-06-07T01:41:01.319Z,89.61
2018-06-07T01:42:01.322Z,89.17
2018-06-07T01:43:01.324Z,89.32
2018-06-07T01:44:01.326Z,89.94
2018-06-07T01:45:01.330Z,89.65
2018-06-07T01:46:01.332Z,89.65
2018-06-07T01:47:01.335Z,89.41
2018-06-07T01:48:01.337Z,89.46
2018-06-07T01:49:01.340Z,90.32
2018-06-07T01:50:01.346Z,90.08
2018-06-07T01:51:01.347Z,89.79
2018-06-07T01:52:01.348Z,89.79
2018-06-07T01:53:01.352Z,90.18
2018-06-07T01:54:01.355Z,90.18
2018-06-07T01:55:01.360Z,89.89
2018-06-07T01:56:01.357Z,89.70
2018-06-07T01:57:01.361Z,89.99
2018-06-07T01:58:01.365Z,89.79
2018-06-07T01:59:01.369Z,89.70
2018-06-07T02:00:01.372Z,89.89
2018-06-07T02:01:01.373Z,90.18
2018-06-07T02:02:01.377Z,90.42
2018-06-07T02:03:01.377Z,90.47
2018-06-07T02:04:01.380Z,90.22
2018-06-07T02:05:01.382Z,89.70
2018-06-07T02:06:01.385Z,89.70
2018-06-07T02:07:01.387Z,89.89
2018-06-07T02:08:01.390Z,90.47
2018-06-07T02:09:01.393Z,90.08
2018-06-07T02:10:01.395Z,90.18
2018-06-07T02:11:01.398Z,90.37
2018-06-07T02:12:01.401Z,90.56
2018-06-07T02:13:01.438Z,90.28
2018-06-07T02:14:01.406Z,90.75
2018-06-07T02:15:01.409Z,90.08
2018-06-07T02:16:01.411Z,90.37
2018-06-07T02:17:01.414Z,90.61
2018-06-07T02:18:01.463Z,90.47
2018-06-07T02:19:01.422Z,91.19
2018-06-07T02:20:01.423Z,90.47
2018-06-07T02:21:01.425Z,90.66
2018-06-07T02:22:01.429Z,90.47
2018-06-07T02:23:01.431Z,90.75
2018-06-07T02:24:01.434Z,90.85
2018-06-07T02:25:01.436Z,91.42
2018-06-07T02:26:01.439Z,91.24
2018-06-07T02:27:01.440Z,91.14
2018-06-07T02:28:01.443Z,91.42
2018-06-07T02:29:01.445Z,91.72
2018-06-07T02:30:01.451Z,92.00
2018-06-07T02:31:01.450Z,91.72
2018-06-07T02:32:01.453Z,91.52
2018-06-07T02:33:01.456Z,91.62
2018-06-07T02:34:01.459Z,90.95
2018-06-07T02:35:01.460Z,90.85
2018-06-07T02:36:01.463Z,90.75
2018-06-07T02:37:01.466Z,91.14
2018-06-07T02:38:01.496Z,90.75
2018-06-07T02:39:01.470Z,90.85
2018-06-07T02:40:01.473Z,91.05
2018-06-07T02:41:01.477Z,91.14
2018-06-07T02:42:01.484Z,90.95
2018-06-07T02:43:01.481Z,91.14
2018-06-07T02:44:01.483Z,92.10
2018-06-07T02:45:01.486Z,91.91
2018-06-07T02:46:01.500Z,92.10
2018-06-07T02:47:01.497Z,91.72
2018-06-07T02:48:01.502Z,92.19
2018-06-07T02:49:01.496Z,91.72
2018-06-07T02:50:01.499Z,92.10
2018-06-07T02:51:01.500Z,92.29
2018-06-07T02:52:01.504Z,91.91
2018-06-07T02:53:01.506Z,92.34
2018-06-07T02:54:01.509Z,92.72
2018-06-07T02:55:01.512Z,92.91
2018-06-07T02:56:01.513Z,92.82
2018-06-07T02:57:01.517Z,92.86
2018-06-07T02:58:01.518Z,92.68
2018-06-07T02:59:01.520Z,92.77
2018-06-07T03:00:01.522Z,92.54
2018-06-07T03:01:01.532Z,93.25
2018-06-07T03:02:01.527Z,93.82
2018-06-07T03:03:01.530Z,92.58
2018-06-07T03:04:01.535Z,92.10
2018-06-07T03:05:01.534Z,92.19
2018-06-07T03:06:01.540Z,92.29
2018-06-07T03:07:01.538Z,92.10
2018-06-07T03:08:01.540Z,92.19
2018-06-07T03:09:01.544Z,92.19
2018-06-07T03:10:01.546Z,92.19
2018-06-07T03:11:01.548Z,92.19
2018-06-07T03:12:01.550Z,92.86
2018-06-07T03:13:01.557Z,92.10
2018-06-07T03:14:01.554Z,92.29
2018-06-07T03:15:01.557Z,92.00
2018-06-07T03:16:01.559Z,92.19
2018-06-07T03:17:01.561Z,92.10
2018-06-07T03:18:01.564Z,92.00
2018-06-07T03:19:01.565Z,92.29
2018-06-07T03:20:01.568Z,92.00
2018-06-07T03:21:01.572Z,91.81
2018-06-07T03:22:01.574Z,92.68
2018-06-07T03:23:01.576Z,92.00
2018-06-07T03:24:01.578Z,91.91
2018-06-07T03:25:01.582Z,91.14
2018-06-07T03:26:01.583Z,91.14
2018-06-07T03:27:01.584Z,92.10
2018-06-07T03:28:01.586Z,92.39
2018-06-07T03:29:01.589Z,93.21
2018-06-07T03:30:01.595Z,93.01
2018-06-07T03:31:01.596Z,94.07
2018-06-07T03:32:01.599Z,94.64
2018-06-07T03:33:01.599Z,94.84
2018-06-07T03:34:01.601Z,95.56
2018-06-07T03:35:01.603Z,95.84
2018-06-07T03:36:01.604Z,96.22
2018-06-07T03:37:01.606Z,96.22
2018-06-07T03:38:01.609Z,96.42
2018-06-07T03:39:01.610Z,96.32
2018-06-07T03:40:01.619Z,96.32
2018-06-07T03:41:01.614Z,96.22
2018-06-07T03:42:01.617Z,95.94
2018-06-07T03:43:01.617Z,95.94
2018-06-07T03:44:01.620Z,95.75
2018-06-07T03:45:01.628Z,95.03
2018-06-07T03:46:01.626Z,95.03
2018-06-07T03:47:01.627Z,94.54
2018-06-07T03:48:01.628Z,95.03
2018-06-07T03:49:01.634Z,95.12
2018-06-07T03:50:01.635Z,94.93
2018-06-07T03:51:01.638Z,95.12
2018-06-07T03:52:01.636Z,94.93
2018-06-07T03:53:01.639Z,95.31
2018-06-07T03:54:01.641Z,95.31
2018-06-07T03:55:01.644Z,94.45
2018-06-07T03:56:01.644Z,93.88
2018-06-07T03:57:01.646Z,94.07
2018-06-07T03:58:01.649Z,93.78
2018-06-07T03:59:01.650Z,94.45
2018-06-07T04:00:01.654Z,94.07
2018-06-07T04:01:01.654Z,94.26
2018-06-07T04:02:01.657Z,94.26
2018-06-07T04:03:01.659Z,93.97
2018-06-07T04:04:01.661Z,95.12
2018-06-07T04:05:01.662Z,94.45
2018-06-07T04:06:01.668Z,94.35
2018-06-07T04:07:01.667Z,94.35
2018-06-07T04:08:01.671Z,94.07
2018-06-07T04:09:01.672Z,94.17
2018-06-07T04:10:01.675Z,94.17
2018-06-07T04:11:01.676Z,94.17
2018-06-07T04:12:01.697Z,94.07
2018-06-07T04:13:01.680Z,93.88
2018-06-07T04:14:01.684Z,93.40
2018-06-07T04:15:01.691Z,92.82
2018-06-07T04:16:01.693Z,92.91
2018-06-07T04:17:01.689Z,92.72
2018-06-07T04:18:01.692Z,92.24
2018-06-07T04:19:01.693Z,92.34
2018-06-07T04:20:01.695Z,92.19
2018-06-07T04:21:01.697Z,91.91
2018-06-07T04:22:01.701Z,91.33
2018-06-07T04:23:01.702Z,92.00
2018-06-07T04:24:01.705Z,91.81
2018-06-07T04:25:01.706Z,91.72
2018-06-07T04:26:01.709Z,91.62
2018-06-07T04:27:01.711Z,90.75
2018-06-07T04:28:01.713Z,90.28
2018-06-07T04:29:01.716Z,90.56
2018-06-07T04:30:01.719Z,90.66
2018-06-07T04:31:01.721Z,90.95
2018-06-07T04:32:01.748Z,91.42
2018-06-07T04:33:01.727Z,91.52
2018-06-07T04:34:01.728Z,91.14
2018-06-07T04:35:01.731Z,91.24
2018-06-07T04:36:01.737Z,90.75
2018-06-07T04:37:01.736Z,91.05
2018-06-07T04:38:01.786Z,91.14
2018-06-07T04:39:01.740Z,90.85
2018-06-07T04:40:01.747Z,90.85
2018-06-07T04:41:01.746Z,90.61
2018-06-07T04:42:01.748Z,91.14
2018-06-07T04:43:01.751Z,91.57
2018-06-07T04:44:01.754Z,91.28
2018-06-07T04:45:01.761Z,91.19
2018-06-07T04:46:01.759Z,90.61
2018-06-07T04:47:01.760Z,90.03
2018-06-07T04:48:01.763Z,90.13
2018-06-07T04:49:01.766Z,90.42
2018-06-07T04:50:01.770Z,90.22
2018-06-07T04:51:01.773Z,91.09
2018-06-07T04:52:01.774Z,89.75
2018-06-07T04:53:01.776Z,88.79
2018-06-07T04:54:01.780Z,88.69
2018-06-07T04:55:01.783Z,88.40
2018-06-07T04:56:01.787Z,88.49
2018-06-07T04:57:01.788Z,88.59
2018-06-07T04:58:01.792Z,88.40
2018-06-07T04:59:01.792Z,87.73
2018-06-07T05:00:01.795Z,87.44
2018-06-07T05:01:01.799Z,87.44
2018-06-07T05:02:01.802Z,86.87
2018-06-07T05:03:01.803Z,86.72
2018-06-07T05:04:01.806Z,86.91
2018-06-07T05:05:01.809Z,87.49
2018-06-07T05:06:01.814Z,87.10
2018-06-07T05:07:01.815Z,87.25
2018-06-07T05:08:01.819Z,86.91
2018-06-07T05:09:01.820Z,86.91
2018-06-07T05:10:01.825Z,86.77
2018-06-07T05:11:01.826Z,88.16
2018-06-07T05:12:01.829Z,88.49
2018-06-07T05:13:01.833Z,88.59
2018-06-07T05:14:01.834Z,88.79
2018-06-07T05:15:01.877Z,89.26
2018-06-07T05:16:01.839Z,89.46
2018-06-07T05:17:01.844Z,89.94
2018-06-07T05:18:01.846Z,89.94
2018-06-07T05:19:01.849Z,89.94
2018-06-07T05:20:01.852Z,89.65
2018-06-07T05:21:01.855Z,90.52
2018-06-07T05:22:01.857Z,90.42
2018-06-07T05:23:01.860Z,90.42
2018-06-07T05:24:01.861Z,90.42
2018-06-07T05:25:01.865Z,90.52
2018-06-07T05:26:01.893Z,91.19
2018-06-07T05:27:01.869Z,90.80
2018-06-07T05:28:01.874Z,90.99
2018-06-07T05:29:01.876Z,90.90
2018-06-07T05:30:01.880Z,91.66
2018-06-07T05:31:01.887Z,90.80
2018-06-07T05:32:01.888Z,91.19
2018-06-07T05:33:01.888Z,91.19
2018-06-07T05:34:01.890Z,90.42
2018-06-07T05:35:01.893Z,90.52
2018-06-07T05:36:01.895Z,90.80
2018-06-07T05:37:01.898Z,91.09
2018-06-07T05:38:01.901Z,91.47
2018-06-07T05:39:01.905Z,91.38
2018-06-07T05:40:01.907Z,90.22
2018-06-07T05:41:01.910Z,90.56
2018-06-07T05:42:01.913Z,90.37
2018-06-07T05:43:01.917Z,89.69
2018-06-07T05:44:01.918Z,90.75
2018-06-07T05:45:01.924Z,90.13
2018-06-07T05:46:01.925Z,90.37
2018-06-07T05:47:01.927Z,89.50
2018-06-07T05:48:01.931Z,89.69
2018-06-07T05:49:01.933Z,89.60
2018-06-07T05:50:01.940Z,89.46
2018-06-07T05:51:01.938Z,89.12
2018-06-07T05:52:02.025Z,89.31
2018-06-07T05:53:01.944Z,89.69
2018-06-07T05:54:01.947Z,90.03
2018-06-07T05:55:01.949Z,90.03
2018-06-07T05:56:01.967Z,88.79
2018-06-07T05:57:01.956Z,89.12
2018-06-07T05:58:01.959Z,89.31
2018-06-07T05:59:01.961Z,89.40
2018-06-07T06:00:01.964Z,90.08
2018-06-07T06:01:01.987Z,90.46
2018-06-07T06:02:01.972Z,90.27
2018-06-07T06:03:02.042Z,90.17
2018-06-07T06:04:01.978Z,89.89
2018-06-07T06:05:01.987Z,89.22
2018-06-07T06:06:01.990Z,89.69
2018-06-07T06:07:01.984Z,90.37
2018-06-07T06:08:01.988Z,89.89
2018-06-07T06:09:01.993Z,89.50
2018-06-07T06:10:01.994Z,90.27
2018-06-07T06:11:01.997Z,89.79
2018-06-07T06:12:02.000Z,89.60
2018-06-07T06:13:02.004Z,89.69
2018-06-07T06:14:02.006Z,90.08
2018-06-07T06:15:02.009Z,88.83
2018-06-07T06:16:02.013Z,88.83
2018-06-07T06:17:02.015Z,89.60
2018-06-07T06:18:02.018Z,89.50
2018-06-07T06:19:02.021Z,89.89
2018-06-07T06:20:02.026Z,89.69
2018-06-07T06:21:02.027Z,89.40
2018-06-07T06:22:02.031Z,90.46
2018-06-07T06:23:02.034Z,89.98
2018-06-07T06:24:02.038Z,89.50
2018-06-07T06:25:02.044Z,89.31
2018-06-07T06:26:02.043Z,89.02
2018-06-07T06:27:02.044Z,88.83
2018-06-07T06:28:02.049Z,88.45
2018-06-07T06:29:02.059Z,88.25
2018-06-07T06:30:02.055Z,88.16
2018-06-07T06:31:02.057Z,88.06
2018-06-07T06:32:02.061Z,88.25
2018-06-07T06:33:02.064Z,89.02
2018-06-07T06:34:02.067Z,88.73
2018-06-07T06:35:02.071Z,87.68
2018-06-07T06:36:02.072Z,87.39
2018-06-07T06:37:02.080Z,87.58
2018-06-07T06:38:02.081Z,87.01
2018-06-07T06:39:02.116Z,87.34
2018-06-07T06:40:02.109Z,86.91
2018-06-07T06:41:02.089Z,87.10
2018-06-07T06:42:02.092Z,87.77
2018-06-07T06:43:02.098Z,87.77
2018-06-07T06:44:02.114Z,87.10
2018-06-07T06:45:02.103Z,87.24
2018-06-07T06:46:02.109Z,87.10
2018-06-07T06:47:02.107Z,87.92
2018-06-07T06:48:02.110Z,87.62
2018-06-07T06:49:02.115Z,87.34
2018-06-07T06:50:02.119Z,87.43
2018-06-07T06:51:02.122Z,85.89
2018-06-07T06:52:02.122Z,86.76
2018-06-07T06:53:02.125Z,86.76
2018-06-07T06:54:02.129Z,87.05
2018-06-07T06:55:02.136Z,86.85
2018-06-07T06:56:02.207Z,86.57
2018-06-07T06:57:02.146Z,86.38
2018-06-07T06:58:02.142Z,87.05
2018-06-07T06:59:02.145Z,87.67
2018-06-07T07:00:02.149Z,86.90
2018-06-07T07:01:02.152Z,86.61
2018-06-07T07:02:02.156Z,85.84
2018-06-07T07:03:02.161Z,86.90
2018-06-07T07:04:02.165Z,86.61
2018-06-07T07:05:02.165Z,86.80
2018-06-07T07:06:02.173Z,85.84
2018-06-07T07:07:02.180Z,85.65
2018-06-07T07:08:02.177Z,85.65
2018-06-07T07:09:02.198Z,85.46
2018-06-07T07:10:02.187Z,85.94
2018-06-07T07:11:02.189Z,85.17
2018-06-07T07:12:02.191Z,87.29
2018-06-07T07:13:02.195Z,86.90
2018-06-07T07:14:02.199Z,85.65
2018-06-07T07:15:02.202Z,85.07
2018-06-07T07:16:02.206Z,85.55
2018-06-07T07:17:02.210Z,85.60
2018-06-07T07:18:02.216Z,86.36
2018-06-07T07:19:02.217Z,85.69
2018-06-07T07:20:02.232Z,84.83
2018-06-07T07:21:02.225Z,85.40
2018-06-07T07:22:02.230Z,85.60
2018-06-07T07:23:02.234Z,85.02
2018-06-07T07:24:02.237Z,84.44
2018-06-07T07:25:02.243Z,84.44
2018-06-07T07:26:02.250Z,85.02
2018-06-07T07:27:02.249Z,85.21
2018-06-07T07:28:02.253Z,84.83
2018-06-07T07:29:02.259Z,85.69
2018-06-07T07:30:02.262Z,84.54
2018-06-07T07:31:02.266Z,85.21
2018-06-07T07:32:02.270Z,85.69
2018-06-07T07:33:02.275Z,86.75
2018-06-07T07:34:02.279Z,86.36
2018-06-07T07:35:02.438Z,84.34
2018-06-07T07:36:02.289Z,85.40
2018-06-07T07:37:02.292Z,86.46
2018-06-07T07:38:02.296Z,86.08
2018-06-07T07:39:02.300Z,86.56
2018-06-07T07:40:02.304Z,85.64
2018-06-07T07:41:02.309Z,84.87
2018-06-07T07:42:02.317Z,85.54
2018-06-07T07:43:02.317Z,85.44
2018-06-07T07:44:02.321Z,84.81
2018-06-07T07:45:02.326Z,84.33
2018-06-07T07:46:02.330Z,84.05
2018-06-07T07:47:02.334Z,82.50
2018-06-07T07:48:02.341Z,82.41
2018-06-07T07:49:02.348Z,82.54
2018-06-07T07:50:02.361Z,81.20
2018-06-07T07:51:02.354Z,81.58
2018-06-07T07:52:02.358Z,82.31
2018-06-07T07:53:02.365Z,82.35
2018-06-07T07:54:02.369Z,81.87
2018-06-07T07:55:02.372Z,81.77
2018-06-07T07:56:02.379Z,80.81
2018-06-07T07:57:02.385Z,82.26
2018-06-07T07:58:02.390Z,83.94
2018-06-07T07:59:02.393Z,84.32
2018-06-07T08:00:02.400Z,82.59
2018-06-07T08:01:02.445Z,80.56
2018-06-07T08:02:02.409Z,80.27
2018-06-07T08:03:02.415Z,79.06
2018-06-07T08:04:02.420Z,79.21
2018-06-07T08:05:02.452Z,77.48
2018-06-07T08:06:02.432Z,77.67
2018-06-07T08:07:02.436Z,78.83
2018-06-07T08:08:02.441Z,79.06
2018-06-07T08:09:02.448Z,80.64
2018-06-07T08:10:02.455Z,79.97
2018-06-07T08:11:02.458Z,79.62
2018-06-07T08:12:02.464Z,76.28
2018-06-07T08:13:02.472Z,75.60
2018-06-07T08:14:02.498Z,74.87
2018-06-07T08:15:02.485Z,73.90
2018-06-07T08:16:02.491Z,72.84
2018-06-07T08:17:02.498Z,71.81
2018-06-07T08:18:02.507Z,72.52
2018-06-07T08:19:02.513Z,72.17
2018-06-07T08:20:02.521Z,69.31
2018-06-07T08:21:02.531Z,66.92
2018-06-07T08:22:02.540Z,67.63
2018-06-07T08:23:02.548Z,67.24
2018-06-07T08:24:02.557Z,67.14
2018-06-07T08:25:02.696Z,65.89
2018-06-07T08:26:02.585Z,65.11
2018-06-07T08:27:02.590Z,64.04
2018-06-07T08:28:02.600Z,65.30
2018-06-07T08:29:02.609Z,67.60
2018-06-07T08:30:02.621Z,66.92
2018-06-07T08:31:02.631Z,66.53
2018-06-07T08:32:02.640Z,66.98
2018-06-07T08:33:02.652Z,64.89
2018-06-07T08:34:02.662Z,65.40
2018-06-07T08:35:02.675Z,64.07
2018-06-07T08:36:02.685Z,63.82
2018-06-07T08:37:02.696Z,63.17
2018-06-07T08:38:02.706Z,63.20
2018-06-07T08:39:02.718Z,60.87
2018-06-07T08:40:02.729Z,60.51
2018-06-07T08:41:02.742Z,62.16
2018-06-07T08:42:02.762Z,60.54
2018-06-07T08:43:02.767Z,60.83
2018-06-07T08:44:02.781Z,59.79
2018-06-07T08:45:02.812Z,58.53
2018-06-07T08:46:02.808Z,58.75
2018-06-07T08:47:02.822Z,57.68
2018-06-07T08:48:02.836Z,56.03
2018-06-07T08:49:02.849Z,55.83
2018-06-07T08:50:02.864Z,55.35
2018-06-07T08:51:02.878Z,54.54
2018-06-07T08:52:02.894Z,55.54
2018-06-07T08:53:02.908Z,54.18
2018-06-07T08:54:02.927Z,53.99
2018-06-07T08:55:02.941Z,54.79
2018-06-07T08:56:02.954Z,54.01
2018-06-07T08:57:02.969Z,54.40
2018-06-07T08:58:02.986Z,54.30
2018-06-07T08:59:03.000Z,54.69
2018-06-07T09:00:03.015Z,54.50
2018-06-07T09:01:03.059Z,53.72
2018-06-07T09:02:03.047Z,54.62
2018-06-07T09:03:03.062Z,54.72
2018-06-07T09:04:03.077Z,52.77
2018-06-07T09:05:03.094Z,53.42
2018-06-07T09:06:03.110Z,52.06
2018-06-07T09:07:03.129Z,55.15
2018-06-07T09:08:03.139Z,56.97
2018-06-07T09:09:03.159Z,55.68
2018-06-07T09:10:03.171Z,55.27
2018-06-07T09:11:03.186Z,55.82
2018-06-07T09:12:03.196Z,58.90
2018-06-07T09:13:03.210Z,59.58
2018-06-07T09:14:03.225Z,60.42
2018-06-07T09:15:03.235Z,61.78
2018-06-07T09:16:03.251Z,60.39
2018-06-07T09:17:03.260Z,60.78
2018-06-07T09:18:03.272Z,61.82
2018-06-07T09:19:03.282Z,62.69
2018-06-07T09:20:03.294Z,62.85
2018-06-07T09:21:03.307Z,62.66
2018-06-07T09:22:03.317Z,63.89
2018-06-07T09:23:03.327Z,64.17
2018-06-07T09:24:03.337Z,66.95
2018-06-07T09:25:03.511Z,65.20
2018-06-07T09:26:03.448Z,66.17
2018-06-07T09:27:03.440Z,65.88
2018-06-07T09:28:03.392Z,66.75
2018-06-07T09:29:03.384Z,66.85
2018-06-07T09:30:03.395Z,67.40
2018-06-07T09:31:03.401Z,66.43
2018-06-07T09:32:03.411Z,67.88
2018-06-07T09:33:03.420Z,67.98
2018-06-07T09:34:03.430Z,68.14
2018-06-07T09:35:03.438Z,68.43
2018-06-07T09:36:03.446Z,68.82
2018-06-07T09:37:03.453Z,68.91
2018-06-07T09:38:03.464Z,68.82
2018-06-07T09:39:03.469Z,69.01
2018-06-07T09:40:03.478Z,68.04
2018-06-07T09:41:03.762Z,69.10
2018-06-07T09:42:03.666Z,67.85
2018-06-07T09:43:03.502Z,68.24
2018-06-07T09:44:03.541Z,68.14
2018-06-07T09:45:03.522Z,68.04
2018-06-07T09:46:03.525Z,67.66
2018-06-07T09:47:03.532Z,67.66
2018-06-07T09:48:03.539Z,67.66
2018-06-07T10:08:44.306Z,65.11
2018-06-07T10:09:44.307Z,64.82
2018-06-07T10:10:44.317Z,66.37
2018-06-07T10:11:44.322Z,66.27
2018-06-07T10:12:44.328Z,66.75
2018-06-07T10:13:44.335Z,68.43
2018-06-07T10:14:44.399Z,65.92
2018-06-07T10:15:44.384Z,66.82
2018-06-07T10:16:44.374Z,63.62
2018-06-07T10:17:44.403Z,65.47
2018-06-07T10:18:44.380Z,64.79
2018-06-07T10:19:44.384Z,65.85
2018-06-07T10:20:44.395Z,66.43
2018-06-07T10:21:44.505Z,65.95
2018-06-07T10:22:44.409Z,63.82
2018-06-07T10:23:44.417Z,63.43
2018-06-07T10:24:44.423Z,63.04
2018-06-07T10:25:44.434Z,63.14
2018-06-07T10:26:44.442Z,63.34
2018-06-07T10:27:44.462Z,63.72
2018-06-07T10:28:44.458Z,62.85
2018-06-07T10:29:44.467Z,63.14
2018-06-07T10:30:44.476Z,63.34
2018-06-07T10:31:44.483Z,65.79
2018-06-07T10:32:44.492Z,65.30
2018-06-07T10:33:44.501Z,63.07
2018-06-07T10:34:44.509Z,62.30
2018-06-07T10:35:44.578Z,62.79
2018-06-07T10:36:44.528Z,63.46
2018-06-07T10:37:44.533Z,63.85
2018-06-07T10:38:44.541Z,63.62
2018-06-07T10:39:44.550Z,66.72
2018-06-07T10:40:44.564Z,68.95
2018-06-07T10:41:44.638Z,68.37
2018-06-07T10:42:44.630Z,69.24
2018-06-07T10:43:45.033Z,65.66
2018-06-07T10:44:44.591Z,65.82
2018-06-07T10:45:44.672Z,66.98
2018-06-07T10:46:44.803Z,67.85
2018-06-07T10:47:44.891Z,69.11
2018-06-07T10:48:44.995Z,67.46
2018-06-07T10:49:44.940Z,66.02
2018-06-07T10:50:44.767Z,68.73
2018-06-07T10:51:44.777Z,66.78
2018-06-07T10:52:44.936Z,65.72
2018-06-07T10:53:44.972Z,66.50
2018-06-07T10:54:44.883Z,65.79
2018-06-07T10:55:44.850Z,65.01
2018-06-07T10:56:44.845Z,66.17
2018-06-07T10:57:44.860Z,65.30
2018-06-07T10:58:45.024Z,66.63
2018-06-07T10:59:44.911Z,65.69
2018-06-07T11:00:44.919Z,66.91
2018-06-07T11:01:45.156Z,65.88
2018-06-07T11:02:44.944Z,67.72
2018-06-07T11:03:44.771Z,69.08
2018-06-07T11:04:44.952Z,68.49
2018-06-07T11:05:45.027Z,68.49
2018-06-07T11:06:44.998Z,68.98
2018-06-07T11:07:44.971Z,68.11
2018-06-07T11:08:45.112Z,66.75
2018-06-07T11:09:45.105Z,66.66
2018-06-07T11:10:44.964Z,66.75
2018-06-07T11:11:45.065Z,66.75
2018-06-07T11:12:45.015Z,66.72
2018-06-07T11:13:45.257Z,66.37
2018-06-07T11:14:44.935Z,67.53
2018-06-07T11:15:44.971Z,67.43
2018-06-07T11:16:45.089Z,68.49
2018-06-07T11:17:45.060Z,67.63
2018-06-07T11:18:45.019Z,69.17
2018-06-07T11:19:44.971Z,69.56
2018-06-07T11:20:45.088Z,69.24
2018-06-07T11:21:45.087Z,67.05
2018-06-07T11:22:45.203Z,68.30
2018-06-07T11:23:45.960Z,69.72
2018-06-07T11:24:45.080Z,69.17
2018-06-07T11:25:45.125Z,69.66
2018-06-07T11:26:45.163Z,69.75
2018-06-07T11:27:45.135Z,70.50
2018-06-07T11:28:44.922Z,68.08
2018-06-07T11:29:45.169Z,68.08
2018-06-07T11:30:45.153Z,68.08
2018-06-07T11:31:45.097Z,67.59
2018-06-07T11:32:45.209Z,68.17
2018-06-07T11:33:45.054Z,68.27
2018-06-07T11:34:45.294Z,67.98
2018-06-07T11:35:45.339Z,68.95
2018-06-07T11:36:45.195Z,69.92
2018-06-07T11:37:45.199Z,68.95
2018-06-07T11:38:45.212Z,66.53
2018-06-07T11:39:45.248Z,68.27
2018-06-07T11:40:45.329Z,69.62
2018-06-07T11:41:45.260Z,70.30
2018-06-07T11:42:45.290Z,70.20
2018-06-07T11:43:45.387Z,69.62
2018-06-07T11:44:45.153Z,69.14
2018-06-07T11:45:45.209Z,68.85
2018-06-07T11:46:45.203Z,68.95
2018-06-07T11:47:45.099Z,68.85
2018-06-07T11:48:45.115Z,69.82
2018-06-07T11:49:45.494Z,70.78
2018-06-07T11:50:45.263Z,69.59
2018-06-07T11:51:45.243Z,69.53
2018-06-07T11:52:45.213Z,70.26
2018-06-07T11:53:45.348Z,73.68
2018-06-07T11:54:45.274Z,73.88
2018-06-07T11:55:45.731Z,73.10
2018-06-07T11:56:45.197Z,72.42
2018-06-07T11:57:45.154Z,74.46
2018-06-07T11:58:45.373Z,71.08
2018-06-07T11:59:45.439Z,71.26
2018-06-07T12:00:45.323Z,71.75
2018-06-07T12:01:45.310Z,71.36
2018-06-07T12:02:45.249Z,70.68
2018-06-07T12:03:45.433Z,70.88
2018-06-07T12:04:45.572Z,73.49
2018-06-07T12:05:45.356Z,75.13
2018-06-07T12:06:45.434Z,73.39
2018-06-07T12:07:45.395Z,72.75
2018-06-07T12:08:45.349Z,70.53
2018-06-07T12:09:45.661Z,70.10
2018-06-07T12:10:45.543Z,69.62
2018-06-07T12:11:45.508Z,69.04
2018-06-07T12:12:45.483Z,69.53
2018-06-07T12:13:45.384Z,72.17
2018-06-07T12:14:45.286Z,73.59
2018-06-07T12:15:45.350Z,70.88
2018-06-07T12:16:45.313Z,70.04
2018-06-07T12:17:45.359Z,69.85
2018-06-07T12:18:45.448Z,70.04
2018-06-07T12:19:45.665Z,71.88
2018-06-07T12:20:45.435Z,71.20
2018-06-07T12:21:45.423Z,70.82
2018-06-07T12:22:45.492Z,70.04
2018-06-07T12:23:45.473Z,70.34
2018-06-07T12:24:45.417Z,70.24
2018-06-07T12:25:45.530Z,71.01
2018-06-07T12:26:45.578Z,71.53
2018-06-07T12:27:45.492Z,70.08
2018-06-07T12:28:45.625Z,69.63
2018-06-07T12:29:45.683Z,68.60
2018-06-07T12:30:45.547Z,67.18
2018-06-07T12:31:45.423Z,69.31
2018-06-07T12:32:45.439Z,68.34
2018-06-07T12:33:45.437Z,64.20
2018-06-07T12:34:45.478Z,65.34
2018-06-07T12:35:45.644Z,65.72
2018-06-07T12:36:45.560Z,68.54
2018-06-07T12:37:45.567Z,68.34
2018-06-07T12:38:45.591Z,69.18
2018-06-07T12:39:45.791Z,69.76
2018-06-07T12:40:45.686Z,68.70
2018-06-07T12:41:45.680Z,69.73
2018-06-07T12:42:45.711Z,69.05
2018-06-07T12:43:45.751Z,70.70
2018-06-07T12:44:45.658Z,68.63
2018-06-07T12:45:45.659Z,69.11
2018-06-07T12:46:45.616Z,69.01
2018-06-07T12:47:45.571Z,69.95
2018-06-07T12:48:45.739Z,70.34
2018-06-07T12:49:45.829Z,71.11
2018-06-07T12:50:45.611Z,71.01
2018-06-07T12:51:45.589Z,71.01
2018-06-07T12:52:45.634Z,70.62
2018-06-07T12:53:45.660Z,70.72
2018-06-07T12:54:45.827Z,72.85
2018-06-07T12:55:45.766Z,73.14
2018-06-07T12:56:45.964Z,71.78
2018-06-07T12:57:46.404Z,72.66
2018-06-07T12:58:45.900Z,71.78
2018-06-07T12:59:45.847Z,70.14
2018-06-07T13:00:45.766Z,68.59
2018-06-07T13:01:45.915Z,69.14
2018-06-07T13:02:45.726Z,70.50
2018-06-07T13:03:45.704Z,72.81
2018-06-07T13:04:45.894Z,72.08
2018-06-07T13:05:46.444Z,73.10
2018-06-07T13:06:45.864Z,70.07
2018-06-07T13:07:45.905Z,71.33
2018-06-07T13:08:45.968Z,72.20
2018-06-07T13:09:45.957Z,74.13
2018-06-07T13:10:45.908Z,75.00
2018-06-07T13:11:46.039Z,75.35